Saint James, Michigan
Current Conditions -  °F | °C
As of 3:16 AM on Sunday 26 Oct 2014 (Local Time) from KSJX Reporting Station
Clear Clear  
Wind Chill: 45°   Ceiling: Unl
Heat Index: 49°   Visibility: 10mi
Dew Point: 37°   Wind: 10mph
Humidity: 61%   Direction: 310°NW
Pressure: 29.83"   Gusts: 20mph
Location:  45.6554°N, 85.5518°W
Report Text: KSJX 260716Z AUTO 31009G17KT 10SM CLR 10/03 A2983 RMK AO2 T00970026
Loading
Personal Weather Stations






























Interactive Weather Map
Tropical Storm Tracking
New forecast layout! Learn more

10-Day Weather Forecast

Advertisements
Track Severe Weather on mobile